createdAt,value
2023-09-09T00:01:12.192Z,88.46
2023-09-09T00:06:20.392Z,87.82
2023-09-09T00:11:27.165Z,88.48
2023-09-09T00:16:36.537Z,88.62
2023-09-09T00:21:46.625Z,87.09
2023-09-09T00:26:53.201Z,87.50
2023-09-09T00:31:59.871Z,88.26
2023-09-09T00:37:08.137Z,89.11
2023-09-09T00:42:14.973Z,89.79
2023-09-09T00:47:22.059Z,88.85
2023-09-09T00:52:30.437Z,89.50
2023-09-09T00:57:36.926Z,89.03
2023-09-09T01:02:44.014Z,89.85
2023-09-09T01:07:52.589Z,88.43
2023-09-09T01:12:59.322Z,88.64
2023-09-09T01:18:06.783Z,88.04
2023-09-09T01:23:14.780Z,88.06
2023-09-09T01:28:23.763Z,88.63
2023-09-09T01:33:30.265Z,89.72
2023-09-09T01:38:39.109Z,88.37
2023-09-09T01:43:45.784Z,88.41
2023-09-09T01:48:52.744Z,87.29
2023-09-09T01:54:00.775Z,88.05
2023-09-09T01:59:07.707Z,88.97
2023-09-09T02:04:16.375Z,90.03
2023-09-09T02:09:24.135Z,91.04
2023-09-09T02:14:30.509Z,90.23
2023-09-09T02:19:37.115Z,89.76
2023-09-09T02:24:45.209Z,90.16
2023-09-09T02:29:52.007Z,89.69
2023-09-09T02:34:59.255Z,89.97
2023-09-09T02:40:08.818Z,90.20
2023-09-09T02:45:15.464Z,90.63
2023-09-09T02:50:23.092Z,88.30
2023-09-09T02:55:31.059Z,89.28
2023-09-09T03:00:37.688Z,90.08
2023-09-09T03:05:44.337Z,90.05
2023-09-09T03:10:54.745Z,90.63
2023-09-09T03:16:01.682Z,91.32
2023-09-09T03:21:08.300Z,90.86
2023-09-09T03:26:20.595Z,90.33
2023-09-09T03:31:27.167Z,89.85
2023-09-09T03:36:33.711Z,90.53
2023-09-09T03:41:45.858Z,89.25
2023-09-09T03:46:52.848Z,88.67
2023-09-09T03:51:59.884Z,89.33
2023-09-09T03:57:08.634Z,89.64
2023-09-09T04:02:15.298Z,88.76
2023-09-09T04:07:23.519Z,88.24
2023-09-09T04:12:31.949Z,89.23
2023-09-09T04:17:40.353Z,90.29
2023-09-09T04:22:47.203Z,90.62
2023-09-09T04:27:55.292Z,90.52
2023-09-09T04:33:02.069Z,90.01
2023-09-09T04:38:09.556Z,90.26
2023-09-09T04:43:19.707Z,91.32
2023-09-09T04:48:27.157Z,91.06
2023-09-09T04:53:34.334Z,91.15
2023-09-09T04:58:42.485Z,92.10
2023-09-09T05:03:49.833Z,92.03
2023-09-09T05:08:56.766Z,92.89
2023-09-09T05:14:05.237Z,93.36
2023-09-09T05:19:12.522Z,94.10
2023-09-09T05:24:19.634Z,95.27
2023-09-09T05:29:27.868Z,95.65
2023-09-09T05:34:34.694Z,96.54
2023-09-09T05:39:41.535Z,96.87
2023-09-09T05:44:50.454Z,97.13
2023-09-09T05:49:58.032Z,97.52
2023-09-09T05:55:04.809Z,97.84
2023-09-09T06:00:14.394Z,97.62
2023-09-09T06:05:24.727Z,98.05
2023-09-09T06:10:31.575Z,97.26
2023-09-09T06:15:40.092Z,100.00
2023-09-09T06:20:50.258Z,100.00
2023-09-09T06:25:57.635Z,100.00
2023-09-09T06:31:05.984Z,100.00
2023-09-09T06:36:14.402Z,100.00
2023-09-09T06:41:23.943Z,100.00
2023-09-09T06:46:32.167Z,100.00
2023-09-09T06:51:38.739Z,100.00
2023-09-09T06:56:45.373Z,100.00
2023-09-09T07:01:54.072Z,100.00
2023-09-09T07:07:12.297Z,100.00
2023-09-09T07:12:20.328Z,100.00
2023-09-09T07:17:28.306Z,100.00
2023-09-09T07:22:34.803Z,100.00
2023-09-09T07:27:41.444Z,100.00
2023-09-09T07:32:49.520Z,100.00
2023-09-09T07:37:55.929Z,100.00
2023-09-09T07:43:03.221Z,100.00
2023-09-09T07:48:11.274Z,100.00
2023-09-09T07:53:17.621Z,100.00
2023-09-09T07:58:24.074Z,100.00
2023-09-09T08:03:32.147Z,100.00
2023-09-09T08:08:39.029Z,100.00
2023-09-09T08:13:45.468Z,100.00
2023-09-09T08:18:53.335Z,100.00
2023-09-09T08:24:02.194Z,100.00
2023-09-09T08:29:08.768Z,100.00
2023-09-09T08:34:16.616Z,100.00
2023-09-09T08:39:23.028Z,100.00
2023-09-09T08:44:42.307Z,100.00
2023-09-09T08:49:55.382Z,100.00
2023-09-09T08:55:02.526Z,100.00
2023-09-09T09:00:13.126Z,100.00
2023-09-09T09:05:21.901Z,100.00
2023-09-09T09:10:28.067Z,100.00
2023-09-09T09:15:37.549Z,100.00
2023-09-09T09:20:46.045Z,100.00
2023-09-09T09:25:53.131Z,100.00
2023-09-09T09:31:00.443Z,100.00
2023-09-09T09:36:08.790Z,100.00
2023-09-09T09:41:15.780Z,98.76
2023-09-09T09:46:25.496Z,98.39
2023-09-09T09:51:46.359Z,97.68
2023-09-09T09:56:54.399Z,97.70
2023-09-09T10:02:02.125Z,95.60
2023-09-09T10:07:18.071Z,94.22
2023-09-09T10:12:46.374Z,93.86
2023-09-09T10:17:56.772Z,91.94
2023-09-09T10:23:09.848Z,90.01
2023-09-09T10:28:17.260Z,90.77
2023-09-09T10:33:25.432Z,92.04
2023-09-09T10:38:33.472Z,90.15
2023-09-09T10:43:40.653Z,89.17
2023-09-09T10:48:47.566Z,88.31
2023-09-09T10:54:10.642Z,86.89
2023-09-09T10:59:22.356Z,84.53
2023-09-09T11:04:29.752Z,82.50
2023-09-09T11:09:38.101Z,83.71
2023-09-09T11:14:48.352Z,80.85
2023-09-09T11:19:55.122Z,80.93
2023-09-09T11:25:05.123Z,78.85
2023-09-09T11:30:13.476Z,80.48
2023-09-09T11:35:20.585Z,83.47
2023-09-09T11:40:29.524Z,81.14
2023-09-09T11:45:37.082Z,78.45
2023-09-09T11:50:44.310Z,76.73
2023-09-09T11:55:57.803Z,76.85
2023-09-09T12:01:05.442Z,77.40
2023-09-09T12:06:15.463Z,75.33
2023-09-09T12:11:25.288Z,75.84
2023-09-09T12:16:34.417Z,75.22
2023-09-09T12:21:47.753Z,76.52
2023-09-09T12:26:57.258Z,76.84
2023-09-09T12:32:05.313Z,79.66
2023-09-09T12:37:12.977Z,77.73
2023-09-09T12:42:26.004Z,79.95
2023-09-09T12:47:32.923Z,80.29
2023-09-09T12:52:40.023Z,81.17
2023-09-09T12:57:48.554Z,77.25
2023-09-09T13:02:55.588Z,73.96
2023-09-09T13:08:02.548Z,72.56
2023-09-09T13:13:11.291Z,72.43
2023-09-09T13:18:19.105Z,69.21
2023-09-09T13:23:25.913Z,71.11
2023-09-09T13:28:34.410Z,69.30
2023-09-09T13:33:41.771Z,70.58
2023-09-09T13:38:49.211Z,65.50
2023-09-09T13:43:57.137Z,63.71
2023-09-09T13:49:04.182Z,63.42
2023-09-09T13:54:11.280Z,66.30
2023-09-09T13:59:19.813Z,68.40
2023-09-09T14:04:27.584Z,70.08
2023-09-09T14:09:34.428Z,70.58
2023-09-09T14:14:43.001Z,72.00
2023-09-09T14:19:50.024Z,73.46
2023-09-09T14:24:56.867Z,75.76
2023-09-09T14:30:05.843Z,76.00
2023-09-09T14:35:12.822Z,76.81
2023-09-09T14:40:19.934Z,76.85
2023-09-09T14:45:28.493Z,78.89
2023-09-09T14:50:35.649Z,78.09
2023-09-09T14:55:43.417Z,77.11
2023-09-09T15:00:51.527Z,76.82
2023-09-09T15:05:58.317Z,76.67
2023-09-09T15:11:06.622Z,78.57
2023-09-09T15:16:14.808Z,81.25
2023-09-09T15:21:21.367Z,81.92
2023-09-09T15:26:28.232Z,82.17
2023-09-09T15:31:37.877Z,83.37
2023-09-09T15:36:44.621Z,84.47
2023-09-09T15:41:51.526Z,86.38
2023-09-09T15:46:59.653Z,87.25
2023-09-09T15:52:07.104Z,89.23
2023-09-09T15:57:14.051Z,89.95
2023-09-09T16:02:22.912Z,90.46
2023-09-09T16:07:39.479Z,92.48
2023-09-09T16:12:46.002Z,92.85
2023-09-09T16:17:54.483Z,93.58
2023-09-09T16:23:02.090Z,94.29
2023-09-09T16:28:10.366Z,94.42
2023-09-09T16:33:19.329Z,94.62
2023-09-09T16:38:26.065Z,96.06
2023-09-09T16:43:33.005Z,97.37
2023-09-09T16:48:41.326Z,97.39
2023-09-09T16:53:48.282Z,96.37
2023-09-09T16:58:55.051Z,96.07
2023-09-09T17:04:03.843Z,96.11
2023-09-09T17:09:10.626Z,96.01
2023-09-09T17:14:17.612Z,95.67
2023-09-09T17:19:25.903Z,94.98
2023-09-09T17:24:32.483Z,94.62
2023-09-09T17:29:38.895Z,95.58
2023-09-09T17:34:47.091Z,95.91
2023-09-09T17:39:53.908Z,95.60
2023-09-09T17:45:00.649Z,95.18
2023-09-09T17:50:10.228Z,95.69
2023-09-09T17:55:17.309Z,95.53
2023-09-09T18:00:28.413Z,94.91
2023-09-09T18:05:39.651Z,94.53
2023-09-09T18:10:49.233Z,94.68
2023-09-09T18:15:56.475Z,95.37
2023-09-09T18:21:05.314Z,95.64
2023-09-09T18:26:13.442Z,95.10
2023-09-09T18:31:22.156Z,95.40
2023-09-09T18:36:32.041Z,96.14
2023-09-09T18:41:40.510Z,96.03
2023-09-09T18:46:50.919Z,95.61
2023-09-09T18:52:00.759Z,96.99
2023-09-09T18:57:13.401Z,93.90
2023-09-09T19:02:24.690Z,95.41
2023-09-09T19:07:39.971Z,95.72
2023-09-09T19:12:47.578Z,95.39
2023-09-09T19:17:58.833Z,94.62
2023-09-09T19:23:09.544Z,94.26
2023-09-09T19:28:18.356Z,95.13
2023-09-09T19:33:28.069Z,96.12
2023-09-09T19:38:40.938Z,96.49
2023-09-09T19:43:50.358Z,95.13
2023-09-09T19:48:58.546Z,95.08
2023-09-09T19:54:09.784Z,96.82
2023-09-09T19:59:18.537Z,96.51
2023-09-09T20:04:28.706Z,93.89
2023-09-09T20:09:42.706Z,95.36
2023-09-09T20:14:53.290Z,96.43
2023-09-09T20:20:01.499Z,95.68
2023-09-09T20:25:13.047Z,94.03
2023-09-09T20:30:24.080Z,91.67
2023-09-09T20:35:35.205Z,92.48
2023-09-09T20:40:45.451Z,94.23
2023-09-09T20:45:53.950Z,93.54
2023-09-09T20:51:04.809Z,94.74
2023-09-09T20:56:16.642Z,93.07
2023-09-09T21:01:23.726Z,94.00
2023-09-09T21:06:32.558Z,92.54
2023-09-09T21:11:42.809Z,91.91
2023-09-09T21:16:50.005Z,93.14
2023-09-09T21:21:57.080Z,93.40
2023-09-09T21:27:06.096Z,94.18
2023-09-09T21:32:13.329Z,95.16
2023-09-09T21:37:20.366Z,95.51
2023-09-09T21:42:29.273Z,93.33
2023-09-09T21:47:37.494Z,92.38
2023-09-09T21:52:44.919Z,93.92
2023-09-09T21:57:53.545Z,94.30
2023-09-09T22:03:00.583Z,93.62
2023-09-09T22:08:08.840Z,92.24
2023-09-09T22:13:17.379Z,90.82
2023-09-09T22:18:25.438Z,90.99
2023-09-09T22:23:32.122Z,91.05
2023-09-09T22:28:41.186Z,92.48
2023-09-09T22:33:48.462Z,92.32
2023-09-09T22:38:56.418Z,92.43
2023-09-09T22:44:05.048Z,92.22
2023-09-09T22:49:11.584Z,92.43
2023-09-09T22:54:18.343Z,92.81
2023-09-09T22:59:26.633Z,92.83
2023-09-09T23:04:33.983Z,93.10
2023-09-09T23:09:41.536Z,92.14
2023-09-09T23:14:50.105Z,92.61
2023-09-09T23:19:59.368Z,92.12
2023-09-09T23:25:06.605Z,92.71
2023-09-09T23:30:15.493Z,90.87
2023-09-09T23:35:22.316Z,92.28
2023-09-09T23:40:29.020Z,91.84
2023-09-09T23:45:37.622Z,90.98
2023-09-09T23:50:44.608Z,90.46
2023-09-09T23:55:51.396Z,91.54
